Ana Sayfa
METAR-TAF:

METAR-TAF

Havaalanları :

Amman, Ürdün

Enlem: 31-59N, Boylam: 035-59E, yükseklik: 767 m

Güncel hava durumu gözlemi

Rapor saat 19:00 UTC de 19 dakika önce yapıldı.
Rüzgar kuzeydan 7 kt
Sıcaklık 24°C
Nem 54%
Basınç 1012 hPa
Görüş mesafesi 10 km veya daha fazla
1500 m altında bulut yok ve kümülonimbus yok

METAR: OJAM 251900Z 35007KT CAVOK 24/14 Q1012 NOSIG

Saat: 22:19 (19:19 UTC)

Tahmin

Rapor saat 16:44 UTC de 2 saat ve 35 dakika önce yapıldı.
Ayın 25'si saat 18 UTC'den ayın 26'si saat 24 UTC'ye kadar geçerli Tahmin
Rüzgar batı/kuzeybatıdan 10 kt
Görüş mesafesi: 6000 m
Geçici
ayın 26'si saat 02 UTC'den ayın 26'si saat 06 UTC'ye kadar
Rüzgar değişken yönden 2 kt
Görüş mesafesi: 5000 m
Toz Pusu

TAF: OJAM 251644Z 2518/2624 30010KT 6000 NSC TEMPO 2602/2606 VRB02KT 5000 HZ

4.000'den fazla havaalanı için hava durumu gözlemleri ve tahminleri (METAR ve TAF raporları).

Kullanılabilir istasyonlar harita üzerinde sarı ve kırmızı noktalarla gösterilir.

İstasyonun adını görmek için fareyi noktanın üzerinde gezdirin.

Sonrasında hava gözlem ve tahminlerini görmek için tıklayın.

Haritayı değiştirmek için: yaklaştırmak için siyah artı işaretli yeşil düğmeye ve uzaklaştırmak için de eksi işaretli düğmeye hızla tıklayın; bitişik haritalar için yeşil okları kullanın.


METAR-TAF: